Time;durP1;ratioP1;P1;durP2;ratioP2;P2;SDS_P1;SDS_P2;PMS_P1;PMS_P2;Temp;Humidity;BMP_temperature;BMP_pressure;BME280_temperature;BME280_humidity;BME280_pressure;Samples;Min_cycle;Max_cycle;Signal;HPM_P1;HPM_P2
2023/09/29 00:01:35;;;;;;;490.88;132.38;;;;;;;;;;5036934;28;20033;-54
2023/09/29 00:04:04;;;;;;;564.45;135.15;;;;;;;;;;5035040;28;20040;-56
2023/09/29 00:06:30;;;;;;;486.58;131.38;;;;;;;;;;5035815;28;20092;-57
2023/09/29 00:08:55;;;;;;;449.42;117.47;;;;;;;;;;5035605;28;20029;-55
2023/09/29 00:11:20;;;;;;;453.17;114.18;;;;;;;;;;5036100;28;20045;-55
2023/09/29 00:13:45;;;;;;;427.60;105.67;;;;;;;;;;5035910;28;20071;-56
2023/09/29 00:16:11;;;;;;;580.33;120.07;;;;;;;;;;5034155;28;20279;-55
2023/09/29 00:18:37;;;;;;;483.60;108.95;;;;;;;;;;5035789;28;20255;-56
2023/09/29 00:21:02;;;;;;;538.83;117.93;;;;;;;;;;5035051;28;20040;-55
2023/09/29 00:23:28;;;;;;;459.23;115.00;;;;;;;;;;5035311;28;20064;-56
2023/09/29 00:25:53;;;;;;;536.78;122.45;;;;;;;;;;5034282;28;20390;-54
2023/09/29 00:28:19;;;;;;;442.98;118.18;;;;;;;;;;5036096;28;20172;-55
2023/09/29 00:30:44;;;;;;;471.17;119.37;;;;;;;;;;5034991;28;20409;-55
2023/09/29 00:33:09;;;;;;;591.95;116.15;;;;;;;;;;5034429;28;20299;-54
2023/09/29 00:35:34;;;;;;;460.92;114.28;;;;;;;;;;5033874;28;20286;-57
2023/09/29 00:38:00;;;;;;;551.92;116.85;;;;;;;;;;5033035;28;20589;-56
2023/09/29 00:40:26;;;;;;;526.10;116.85;;;;;;;;;;5033670;28;20040;-55
2023/09/29 00:42:52;;;;;;;474.33;114.05;;;;;;;;;;5033496;28;20020;-54
2023/09/29 00:45:20;;;;;;;481.38;107.30;;;;;;;;;;5031746;28;20032;-55
2023/09/29 00:47:49;;;;;;;530.95;109.28;;;;;;;;;;5032875;28;20031;-54
2023/09/29 00:50:14;;;;;;;537.67;114.43;;;;;;;;;;5032525;28;20433;-56
2023/09/29 00:52:40;;;;;;;483.80;113.53;;;;;;;;;;5032376;28;20062;-54
2023/09/29 00:55:08;;;;;;;553.72;117.50;;;;;;;;;;5032866;28;20292;-54
2023/09/29 00:57:34;;;;;;;452.70;112.95;;;;;;;;;;5033396;28;20041;-54
2023/09/29 00:59:59;;;;;;;535.03;118.25;;;;;;;;;;5031082;28;20032;-54
2023/09/29 01:02:25;;;;;;;516.30;114.20;;;;;;;;;;5032020;28;20029;-54
2023/09/29 01:04:50;;;;;;;480.35;114.30;;;;;;;;;;5032650;28;20032;-54
2023/09/29 01:07:16;;;;;;;486.80;115.97;;;;;;;;;;5031729;28;20565;-54
2023/09/29 01:09:41;;;;;;;469.27;116.38;;;;;;;;;;5033534;28;20013;-54
2023/09/29 01:12:09;;;;;;;466.85;116.72;;;;;;;;;;5032040;28;20037;-54
2023/09/29 01:14:34;;;;;;;497.38;116.93;;;;;;;;;;5033657;28;20471;-55
2023/09/29 01:16:59;;;;;;;524.10;119.43;;;;;;;;;;5032220;28;20045;-55
2023/09/29 01:19:25;;;;;;;444.65;116.00;;;;;;;;;;5033702;28;20154;-55
2023/09/29 01:21:51;;;;;;;469.38;119.43;;;;;;;;;;5035540;28;20033;-54
2023/09/29 01:24:16;;;;;;;491.52;121.18;;;;;;;;;;5035870;28;20033;-54
2023/09/29 01:26:44;;;;;;;505.05;122.00;;;;;;;;;;5036400;28;20045;-55
2023/09/29 01:29:11;;;;;;;515.85;121.65;;;;;;;;;;5036037;28;20464;-54
2023/09/29 01:31:37;;;;;;;444.95;120.28;;;;;;;;;;5035699;28;20037;-54
2023/09/29 01:34:04;;;;;;;524.72;123.30;;;;;;;;;;5036212;28;20107;-54
2023/09/29 01:36:29;;;;;;;489.38;123.50;;;;;;;;;;5036562;28;20071;-54
2023/09/29 01:38:54;;;;;;;443.52;120.22;;;;;;;;;;5036912;28;20082;-53
2023/09/29 01:41:20;;;;;;;468.07;121.00;;;;;;;;;;5035437;28;20122;-54
2023/09/29 01:43:46;;;;;;;527.78;125.82;;;;;;;;;;5035822;28;20753;-54
2023/09/29 01:46:15;;;;;;;555.08;128.38;;;;;;;;;;5035287;28;20111;-53
2023/09/29 01:48:40;;;;;;;513.95;124.80;;;;;;;;;;5037001;28;20045;-56
2023/09/29 01:51:06;;;;;;;580.28;129.25;;;;;;;;;;5035423;28;20064;-52
2023/09/29 01:53:31;;;;;;;431.60;122.32;;;;;;;;;;5036844;28;20048;-53
2023/09/29 01:55:57;;;;;;;482.88;125.88;;;;;;;;;;5037625;28;20314;-53
2023/09/29 01:58:22;;;;;;;500.52;129.57;;;;;;;;;;5037253;28;20623;-54
2023/09/29 02:00:48;;;;;;;465.48;125.47;;;;;;;;;;5037995;28;20033;-54
2023/09/29 02:03:13;;;;;;;583.53;133.40;;;;;;;;;;5036677;28;20059;-53
2023/09/29 02:05:38;;;;;;;508.87;128.83;;;;;;;;;;5037219;28;20652;-53
2023/09/29 02:08:05;;;;;;;573.38;132.80;;;;;;;;;;5036207;28;20347;-54
2023/09/29 02:10:31;;;;;;;431.25;127.00;;;;;;;;;;5037618;28;20242;-54
2023/09/29 02:12:57;;;;;;;507.08;128.45;;;;;;;;;;5037924;28;20292;-53
2023/09/29 02:15:24;;;;;;;475.38;126.32;;;;;;;;;;5036195;28;20521;-56
2023/09/29 02:17:50;;;;;;;467.77;126.32;;;;;;;;;;5037945;28;20452;-53
2023/09/29 02:20:17;;;;;;;543.38;133.07;;;;;;;;;;5036553;28;20537;-54
2023/09/29 02:22:42;;;;;;;422.55;105.85;;;;;;;;;;5037533;28;20524;-53
2023/09/29 02:25:10;;;;;;;543.88;118.10;;;;;;;;;;5035780;28;20257;-53
2023/09/29 02:27:36;;;;;;;449.52;105.90;;;;;;;;;;5036103;28;20210;-52
2023/09/29 02:30:02;;;;;;;419.83;110.70;;;;;;;;;;5037172;28;20157;-52
2023/09/29 02:32:27;;;;;;;417.98;113.35;;;;;;;;;;5035486;28;20099;-52
2023/09/29 02:34:55;;;;;;;543.73;122.27;;;;;;;;;;5036365;28;20036;-52
2023/09/29 02:37:21;;;;;;;545.47;117.00;;;;;;;;;;5035016;28;20272;-52
2023/09/29 02:39:46;;;;;;;511.35;119.63;;;;;;;;;;5036468;28;20039;-54
2023/09/29 02:42:11;;;;;;;624.17;126.78;;;;;;;;;;5032662;28;20037;-55
2023/09/29 02:44:38;;;;;;;438.83;117.88;;;;;;;;;;5035583;28;20064;-52
2023/09/29 02:47:03;;;;;;;516.60;122.80;;;;;;;;;;5032938;28;20033;-54
2023/09/29 02:49:30;;;;;;;487.38;107.47;;;;;;;;;;5036312;28;20433;-53
2023/09/29 02:51:55;;;;;;;437.75;105.30;;;;;;;;;;5035202;28;20425;-54
2023/09/29 02:54:20;;;;;;;433.67;105.20;;;;;;;;;;5034119;28;21975;-53
2023/09/29 02:56:46;;;;;;;484.77;111.82;;;;;;;;;;5034269;28;20110;-54
2023/09/29 02:59:12;;;;;;;592.60;120.67;;;;;;;;;;5034058;28;20067;-55
2023/09/29 03:01:37;;;;;;;452.30;114.50;;;;;;;;;;5034595;28;20420;-54
2023/09/29 03:04:03;;;;;;;489.35;117.32;;;;;;;;;;5033918;28;20055;-53
2023/09/29 03:06:29;;;;;;;453.23;116.65;;;;;;;;;;5034051;28;20506;-53
2023/09/29 03:08:57;;;;;;;469.60;118.15;;;;;;;;;;5034476;28;20032;-53
2023/09/29 03:11:25;;;;;;;541.40;123.15;;;;;;;;;;5033639;28;20462;-53
2023/09/29 03:13:50;;;;;;;434.55;117.57;;;;;;;;;;5035287;28;20041;-54
2023/09/29 03:16:18;;;;;;;547.80;124.82;;;;;;;;;;5034259;28;20080;-52
2023/09/29 03:18:43;;;;;;;458.33;120.82;;;;;;;;;;5035837;28;20510;-54
2023/09/29 03:21:09;;;;;;;570.92;127.32;;;;;;;;;;5034851;28;20052;-54
2023/09/29 03:23:34;;;;;;;447.70;120.47;;;;;;;;;;5035679;28;20066;-55
2023/09/29 03:26:00;;;;;;;478.63;122.70;;;;;;;;;;5017635;28;20029;-53
2023/09/29 03:28:26;;;;;;;438.88;115.20;;;;;;;;;;5035508;28;20052;-54
2023/09/29 03:30:51;;;;;;;468.30;120.65;;;;;;;;;;5018122;28;20044;-54
2023/09/29 03:33:16;;;;;;;561.92;127.18;;;;;;;;;;5035135;28;20569;-54
2023/09/29 03:35:42;;;;;;;464.38;121.32;;;;;;;;;;5034728;28;20128;-53
2023/09/29 03:38:08;;;;;;;555.13;126.35;;;;;;;;;;5034993;28;20047;-52
2023/09/29 03:40:33;;;;;;;440.33;122.20;;;;;;;;;;5034602;28;20201;-53
2023/09/29 03:42:59;;;;;;;481.58;126.60;;;;;;;;;;5035285;28;20504;-54
2023/09/29 03:45:25;;;;;;;442.05;121.15;;;;;;;;;;5033896;28;20036;-54
2023/09/29 03:47:51;;;;;;;481.17;124.60;;;;;;;;;;5035842;28;20036;-54
2023/09/29 03:50:16;;;;;;;517.47;128.60;;;;;;;;;;5035662;28;20017;-55
2023/09/29 03:52:42;;;;;;;482.20;116.28;;;;;;;;;;5035903;28;20032;-54
2023/09/29 03:55:09;;;;;;;558.00;121.88;;;;;;;;;;5034342;28;20729;-55
2023/09/29 03:57:36;;;;;;;448.92;119.00;;;;;;;;;;5035443;28;20178;-54
2023/09/29 04:00:01;;;;;;;428.83;118.65;;;;;;;;;;5037002;28;20292;-53
2023/09/29 04:02:26;;;;;;;479.00;122.00;;;;;;;;;;5032198;28;20033;-53
2023/09/29 04:04:51;;;;;;;461.07;121.20;;;;;;;;;;5035535;28;20255;-53
2023/09/29 04:07:17;;;;;;;574.70;128.18;;;;;;;;;;5033258;28;20326;-53
2023/09/29 04:09:42;;;;;;;539.97;124.67;;;;;;;;;;5035830;28;20028;-54
2023/09/29 04:12:07;;;;;;;456.55;122.95;;;;;;;;;;5034124;28;20641;-53
2023/09/29 04:14:32;;;;;;;424.08;120.43;;;;;;;;;;5035816;28;20033;-52
2023/09/29 04:16:58;;;;;;;496.48;122.60;;;;;;;;;;5034304;28;20049;-54
2023/09/29 04:19:23;;;;;;;520.92;123.68;;;;;;;;;;5034293;28;20096;-53
2023/09/29 04:21:48;;;;;;;465.92;123.03;;;;;;;;;;5034536;28;20043;-53
2023/09/29 04:24:13;;;;;;;635.20;132.77;;;;;;;;;;5032720;28;20379;-53
2023/09/29 04:26:39;;;;;;;412.80;120.53;;;;;;;;;;5033771;28;20059;-53
2023/09/29 04:29:05;;;;;;;458.60;125.37;;;;;;;;;;5036163;28;20255;-53
2023/09/29 04:31:30;;;;;;;495.35;126.32;;;;;;;;;;5031547;28;20272;-53
2023/09/29 04:33:56;;;;;;;440.45;121.72;;;;;;;;;;5034849;28;20119;-54
2023/09/29 04:36:21;;;;;;;512.75;126.70;;;;;;;;;;5033398;28;20342;-54
2023/09/29 04:38:46;;;;;;;524.93;128.23;;;;;;;;;;5033294;28;20079;-52
2023/09/29 04:41:12;;;;;;;633.50;134.90;;;;;;;;;;5030986;28;20349;-52
2023/09/29 04:43:37;;;;;;;466.13;127.25;;;;;;;;;;5032738;28;20708;-53
2023/09/29 04:46:02;;;;;;;547.22;130.77;;;;;;;;;;5031125;28;20441;-53
2023/09/29 04:48:28;;;;;;;486.13;128.38;;;;;;;;;;5033381;28;20681;-54
2023/09/29 04:50:54;;;;;;;494.55;129.25;;;;;;;;;;5033553;28;20033;-52
2023/09/29 04:53:19;;;;;;;622.85;137.73;;;;;;;;;;5032073;28;20542;-53
2023/09/29 04:55:44;;;;;;;519.30;133.17;;;;;;;;;;5031636;28;20143;-53
2023/09/29 04:58:10;;;;;;;502.15;131.95;;;;;;;;;;5031935;28;20800;-52
2023/09/29 05:00:35;;;;;;;533.22;136.02;;;;;;;;;;5031995;28;20033;-52
2023/09/29 05:03:01;;;;;;;488.73;132.35;;;;;;;;;;5031113;28;20025;-53
2023/09/29 05:05:26;;;;;;;633.53;139.23;;;;;;;;;;5029731;28;20342;-54
2023/09/29 05:07:52;;;;;;;489.17;130.80;;;;;;;;;;5031706;28;20234;-54
2023/09/29 05:10:19;;;;;;;552.50;136.18;;;;;;;;;;5030763;28;20329;-53
2023/09/29 05:12:44;;;;;;;476.38;131.68;;;;;;;;;;5032991;28;20143;-52
2023/09/29 05:15:10;;;;;;;468.80;130.10;;;;;;;;;;5032511;28;20156;-55
2023/09/29 05:17:35;;;;;;;468.33;131.98;;;;;;;;;;5034005;28;20127;-53
2023/09/29 05:20:01;;;;;;;451.77;130.00;;;;;;;;;;5034212;28;20313;-54
2023/09/29 05:22:26;;;;;;;656.92;142.18;;;;;;;;;;5031383;28;20802;-54
2023/09/29 05:24:53;;;;;;;529.50;136.10;;;;;;;;;;5032894;28;20074;-54
2023/09/29 05:27:19;;;;;;;521.38;134.73;;;;;;;;;;5014556;28;20290;-53
2023/09/29 05:29:44;;;;;;;481.35;135.02;;;;;;;;;;5031875;28;20135;-55
2023/09/29 05:32:09;;;;;;;483.20;132.77;;;;;;;;;;5032697;28;20102;-54
2023/09/29 05:34:35;;;;;;;513.85;136.02;;;;;;;;;;5013022;28;20287;-54
2023/09/29 05:37:00;;;;;;;526.20;137.43;;;;;;;;;;5029413;28;20116;-53
2023/09/29 05:39:25;;;;;;;594.35;123.85;;;;;;;;;;5030725;28;20366;-53
2023/09/29 05:41:50;;;;;;;456.93;119.40;;;;;;;;;;5031998;28;20141;-54
2023/09/29 05:44:16;;;;;;;585.22;127.10;;;;;;;;;;5031113;28;20294;-54
2023/09/29 05:46:41;;;;;;;486.83;112.50;;;;;;;;;;5033234;28;20032;-53
2023/09/29 05:49:09;;;;;;;460.38;116.32;;;;;;;;;;5034049;28;20255;-56
2023/09/29 05:51:34;;;;;;;509.35;116.53;;;;;;;;;;5030315;28;20152;-55
2023/09/29 05:54:02;;;;;;;438.02;116.03;;;;;;;;;;5031864;28;20529;-54
2023/09/29 05:56:29;;;;;;;560.53;123.47;;;;;;;;;;5030582;28;20036;-55
2023/09/29 05:58:55;;;;;;;479.92;118.10;;;;;;;;;;5032716;28;20494;-54
2023/09/29 06:01:20;;;;;;;593.40;121.55;;;;;;;;;;5032328;28;20119;-52
2023/09/29 06:03:45;;;;;;;510.27;115.13;;;;;;;;;;5014471;28;20538;-54
2023/09/29 06:06:11;;;;;;;437.90;112.20;;;;;;;;;;5032058;28;20245;-54
2023/09/29 06:08:39;;;;;;;435.20;111.63;;;;;;;;;;5035569;28;20338;-56
2023/09/29 06:11:04;;;;;;;485.00;112.93;;;;;;;;;;5036576;28;20033;-54
2023/09/29 06:13:29;;;;;;;659.65;120.47;;;;;;;;;;5033771;28;20120;-54
2023/09/29 06:15:58;;;;;;;505.10;111.07;;;;;;;;;;5035703;28;20235;-54
2023/09/29 06:18:23;;;;;;;516.45;109.03;;;;;;;;;;5035625;28;20471;-55
2023/09/29 06:20:48;;;;;;;525.58;108.78;;;;;;;;;;5036020;28;20036;-54
2023/09/29 06:23:14;;;;;;;470.13;105.37;;;;;;;;;;5035767;28;20028;-54
2023/09/29 06:25:39;;;;;;;440.13;102.43;;;;;;;;;;5037927;28;20442;-55
2023/09/29 06:28:04;;;;;;;480.92;102.43;;;;;;;;;;5037687;28;20045;-54
2023/09/29 06:30:30;;;;;;;502.20;106.18;;;;;;;;;;5036161;28;20582;-55
2023/09/29 06:32:55;;;;;;;488.88;104.50;;;;;;;;;;5036990;28;20486;-56
2023/09/29 06:35:21;;;;;;;609.22;111.07;;;;;;;;;;5034465;28;20099;-55
2023/09/29 06:37:46;;;;;;;484.75;103.70;;;;;;;;;;5036924;28;20017;-56
2023/09/29 06:40:11;;;;;;;424.73;99.77;;;;;;;;;;5036648;28;20600;-56
2023/09/29 06:42:37;;;;;;;477.45;98.35;;;;;;;;;;5034823;28;20047;-55
2023/09/29 06:45:03;;;;;;;432.77;94.43;;;;;;;;;;5035818;28;20471;-55
2023/09/29 06:47:28;;;;;;;463.52;93.25;;;;;;;;;;5035170;28;20392;-55
2023/09/29 06:49:54;;;;;;;413.30;88.87;;;;;;;;;;5036293;28;20021;-55
2023/09/29 06:52:19;;;;;;;442.10;88.13;;;;;;;;;;5034391;28;20575;-55
2023/09/29 06:54:44;;;;;;;401.07;82.67;;;;;;;;;;5036355;28;20255;-55
2023/09/29 06:57:09;;;;;;;382.70;81.75;;;;;;;;;;5035807;28;20063;-57
2023/09/29 06:59:35;;;;;;;385.77;85.93;;;;;;;;;;5033273;28;20573;-55
2023/09/29 07:02:00;;;;;;;328.65;75.45;;;;;;;;;;5032066;28;20491;-55
2023/09/29 07:04:25;;;;;;;357.55;73.57;;;;;;;;;;5037781;28;20757;-54
2023/09/29 07:06:51;;;;;;;314.37;69.83;;;;;;;;;;5038560;28;20280;-55
2023/09/29 07:09:16;;;;;;;402.13;158.33;;;;;;;;;;5038214;28;20070;-54
2023/09/29 07:11:42;;;;;;;344.13;68.70;;;;;;;;;;5037901;28;20428;-56
2023/09/29 07:14:07;;;;;;;577.10;322.02;;;;;;;;;;5038029;28;20029;-55
2023/09/29 07:16:32;;;;;;;538.20;208.95;;;;;;;;;;5036774;28;20494;-56
2023/09/29 07:18:58;;;;;;;257.20;69.30;;;;;;;;;;5037952;28;20387;-55
2023/09/29 07:21:23;;;;;;;487.37;110.77;;;;;;;;;;5035862;28;20233;-55
2023/09/29 07:23:48;;;;;;;331.57;141.93;;;;;;;;;;5038134;28;20696;-58
2023/09/29 07:26:13;;;;;;;375.23;219.50;;;;;;;;;;5037421;28;20345;-55
2023/09/29 07:28:40;;;;;;;434.03;146.83;;;;;;;;;;5036787;28;20321;-54
2023/09/29 07:31:05;;;;;;;425.45;285.05;;;;;;;;;;5021728;28;20366;-57
2023/09/29 07:33:30;;;;;;;311.70;55.00;;;;;;;;;;5036116;28;20163;-56
2023/09/29 07:35:56;;;;;;;391.47;74.53;;;;;;;;;;5036140;28;20083;-56
2023/09/29 07:38:21;;;;;;;410.90;131.43;;;;;;;;;;5035882;28;20041;-56
2023/09/29 07:40:47;;;;;;;276.73;52.00;;;;;;;;;;5036834;28;20275;-56
2023/09/29 07:43:12;;;;;;;472.80;279.67;;;;;;;;;;5037083;28;20283;-56
2023/09/29 07:45:37;;;;;;;476.27;308.60;;;;;;;;;;5036987;28;21479;-55
2023/09/29 07:48:03;;;;;;;405.83;192.73;;;;;;;;;;5038443;28;20040;-54
2023/09/29 07:50:28;;;;;;;550.47;251.20;;;;;;;;;;5035992;28;20262;-58
2023/09/29 07:52:53;;;;;;;487.20;267.53;;;;;;;;;;5037092;28;20029;-56
2023/09/29 07:55:18;;;;;;;474.63;343.10;;;;;;;;;;5037928;28;20017;-57
2023/09/29 07:57:44;;;;;;;559.25;323.58;;;;;;;;;;5036695;28;20025;-56
2023/09/29 08:00:10;;;;;;;524.13;301.10;;;;;;;;;;5037461;28;20060;-55
2023/09/29 08:02:35;;;;;;;526.33;305.90;;;;;;;;;;5036291;28;20413;-56
2023/09/29 08:05:01;;;;;;;555.00;381.92;;;;;;;;;;5037117;28;20138;-55
2023/09/29 08:07:27;;;;;;;517.47;266.00;;;;;;;;;;5036710;28;20039;-55
2023/09/29 08:09:53;;;;;;;425.58;234.65;;;;;;;;;;5037674;28;20017;-55
2023/09/29 08:12:18;;;;;;;484.95;313.52;;;;;;;;;;5037092;28;20086;-56
2023/09/29 08:14:43;;;;;;;428.05;313.77;;;;;;;;;;5035249;28;20028;-55
2023/09/29 08:17:09;;;;;;;480.47;376.13;;;;;;;;;;5018977;28;20406;-56
2023/09/29 08:19:35;;;;;;;450.73;117.93;;;;;;;;;;5035450;28;20044;-56
2023/09/29 08:22:00;;;;;;;448.10;287.13;;;;;;;;;;5036298;28;20029;-55
2023/09/29 08:24:25;;;;;;;517.87;294.30;;;;;;;;;;5037430;28;20305;-57
2023/09/29 08:26:51;;;;;;;472.88;318.17;;;;;;;;;;5037127;28;20640;-56
2023/09/29 08:29:16;;;;;;;515.03;353.70;;;;;;;;;;5037338;28;20045;-56
2023/09/29 08:31:44;;;;;;;485.70;226.63;;;;;;;;;;5033907;28;20411;-58
2023/09/29 08:34:10;;;;;;;580.80;326.55;;;;;;;;;;5036556;28;20099;-57
2023/09/29 08:36:35;;;;;;;585.73;209.37;;;;;;;;;;5033899;28;20067;-57
2023/09/29 08:39:01;;;;;;;508.00;277.55;;;;;;;;;;5036835;28;20276;-57
2023/09/29 08:41:27;;;;;;;550.47;151.40;;;;;;;;;;5035728;28;20061;-57
2023/09/29 08:43:53;;;;;;;489.65;318.42;;;;;;;;;;5037327;28;20020;-57
2023/09/29 08:46:18;;;;;;;382.33;188.30;;;;;;;;;;5036977;28;20032;-57
2023/09/29 08:48:45;;;;;;;432.02;165.57;;;;;;;;;;5034333;28;20025;-56
2023/09/29 08:51:12;;;;;;;489.17;307.05;;;;;;;;;;5036297;28;20048;-57
2023/09/29 08:53:39;;;;;;;483.38;83.22;;;;;;;;;;5035503;28;20509;-55
2023/09/29 08:56:11;;;;;;;288.33;42.50;;;;;;;;;;5017955;28;20025;-55
2023/09/29 08:58:36;;;;;;;485.10;103.43;;;;;;;;;;5033320;28;20032;-57
2023/09/29 09:01:01;;;;;;;469.73;317.50;;;;;;;;;;5035898;28;20032;-57
2023/09/29 09:03:27;;;;;;;334.47;33.33;;;;;;;;;;5035805;28;20055;-57
2023/09/29 09:05:55;;;;;;;478.75;177.82;;;;;;;;;;5035885;28;20036;-55
2023/09/29 09:08:20;;;;;;;492.83;317.20;;;;;;;;;;5035799;28;20059;-57
2023/09/29 09:10:45;;;;;;;422.55;160.40;;;;;;;;;;5034558;28;20123;-56
2023/09/29 09:13:11;;;;;;;386.77;149.73;;;;;;;;;;5035872;28;20053;-57
2023/09/29 09:15:36;;;;;;;620.23;301.47;;;;;;;;;;5034476;28;20592;-56
2023/09/29 09:18:02;;;;;;;463.98;261.85;;;;;;;;;;5035862;28;20017;-57
2023/09/29 09:20:27;;;;;;;473.45;296.83;;;;;;;;;;5035120;28;20041;-56
2023/09/29 09:22:57;;;;;;;379.88;243.05;;;;;;;;;;5037752;28;20449;-56
2023/09/29 09:25:30;;;;;;;326.55;67.70;;;;;;;;;;5036626;28;20075;-56
2023/09/29 09:27:55;;;;;;;303.60;58.47;;;;;;;;;;5036712;28;20510;-54
2023/09/29 09:30:21;;;;;;;131.90;8.13;;;;;;;;;;5036645;28;20116;-57
2023/09/29 09:32:47;;;;;;;267.75;16.45;;;;;;;;;;5034691;28;20735;-56
2023/09/29 09:35:22;;;;;;;214.10;33.63;;;;;;;;;;5036634;28;20040;-55
2023/09/29 09:37:51;;;;;;;410.35;131.25;;;;;;;;;;5035325;28;20028;-58
2023/09/29 09:40:17;;;;;;;224.07;92.13;;;;;;;;;;5036754;28;20025;-57
2023/09/29 09:42:42;;;;;;;281.15;27.48;;;;;;;;;;5039362;28;20059;-58
2023/09/29 09:45:08;;;;;;;571.23;279.73;;;;;;;;;;5040498;28;20028;-58
2023/09/29 09:47:37;;;;;;;524.53;176.60;;;;;;;;;;5037301;28;20324;-57
2023/09/29 09:50:05;;;;;;;189.23;20.52;;;;;;;;;;5041074;28;20043;-56
2023/09/29 09:52:31;;;;;;;405.75;111.47;;;;;;;;;;5037754;28;20132;-58
2023/09/29 09:54:58;;;;;;;366.38;198.57;;;;;;;;;;5039969;28;20104;-56
2023/09/29 09:57:37;;;;;;;425.73;224.45;;;;;;;;;;5040045;28;20029;-57
2023/09/29 10:00:07;;;;;;;328.60;148.25;;;;;;;;;;5022691;28;20020;-57
2023/09/29 10:02:35;;;;;;;493.50;282.23;;;;;;;;;;5039775;28;20048;-58
2023/09/29 10:05:01;;;;;;;443.70;253.65;;;;;;;;;;5040436;28;20013;-58
2023/09/29 10:07:26;;;;;;;327.45;142.23;;;;;;;;;;5040056;28;20029;-56
2023/09/29 10:09:51;;;;;;;446.97;343.80;;;;;;;;;;5039099;28;20411;-56
2023/09/29 10:12:23;;;;;;;560.47;400.70;;;;;;;;;;5039256;28;20391;-57
2023/09/29 10:14:48;;;;;;;438.40;299.63;;;;;;;;;;5019825;28;20118;-57
2023/09/29 10:17:13;;;;;;;344.17;249.27;;;;;;;;;;5021273;28;20286;-56
2023/09/29 10:19:39;;;;;;;536.60;237.40;;;;;;;;;;5038160;28;20020;-59
2023/09/29 10:22:06;;;;;;;374.23;186.90;;;;;;;;;;5041335;28;20033;-56
2023/09/29 10:24:31;;;;;;;404.83;176.13;;;;;;;;;;5039737;28;20267;-57
2023/09/29 10:27:03;;;;;;;515.13;306.40;;;;;;;;;;5039160;28;20029;-55
2023/09/29 10:29:30;;;;;;;503.33;388.42;;;;;;;;;;5038509;28;20013;-56
2023/09/29 10:32:07;;;;;;;492.48;336.80;;;;;;;;;;5039313;28;20036;-57
2023/09/29 10:34:33;;;;;;;394.52;142.98;;;;;;;;;;5038354;28;20472;-57
2023/09/29 10:36:58;;;;;;;502.00;266.88;;;;;;;;;;5039475;28;20518;-56
2023/09/29 10:39:27;;;;;;;408.25;192.88;;;;;;;;;;5039896;28;20462;-57
2023/09/29 10:41:59;;;;;;;402.23;206.07;;;;;;;;;;5039310;28;20037;-57
2023/09/29 10:44:27;;;;;;;242.52;62.70;;;;;;;;;;5039611;28;20539;-57
2023/09/29 10:46:52;;;;;;;321.20;102.28;;;;;;;;;;5036968;28;20498;-58
2023/09/29 10:49:17;;;;;;;294.85;136.82;;;;;;;;;;5039554;28;20017;-58
2023/09/29 10:51:43;;;;;;;422.93;77.43;;;;;;;;;;5037374;28;20543;-57
2023/09/29 10:54:08;;;;;;;360.23;160.73;;;;;;;;;;5038044;28;20405;-57
2023/09/29 10:56:34;;;;;;;285.77;50.08;;;;;;;;;;5019407;28;20087;-57
2023/09/29 10:59:04;;;;;;;463.95;284.70;;;;;;;;;;5039384;28;20487;-56
2023/09/29 11:01:35;;;;;;;290.83;106.90;;;;;;;;;;5039372;28;20033;-57
2023/09/29 11:04:08;;;;;;;320.65;130.00;;;;;;;;;;5039303;28;20067;-59
2023/09/29 11:06:42;;;;;;;482.35;116.55;;;;;;;;;;5036685;28;20055;-57
2023/09/29 11:09:07;;;;;;;300.02;163.82;;;;;;;;;;5040289;28;20291;-56
2023/09/29 11:11:33;;;;;;;436.38;289.60;;;;;;;;;;5037679;28;20521;-58
2023/09/29 11:13:59;;;;;;;311.00;90.15;;;;;;;;;;5038036;28;20028;-57
2023/09/29 11:16:27;;;;;;;313.75;127.50;;;;;;;;;;5038407;28;20044;-58
2023/09/29 11:18:56;;;;;;;342.10;187.05;;;;;;;;;;5037057;28;20043;-56
2023/09/29 11:21:32;;;;;;;226.60;48.35;;;;;;;;;;5039624;28;20124;-58
2023/09/29 11:24:02;;;;;;;204.25;40.47;;;;;;;;;;5039565;28;20064;-57
2023/09/29 11:26:28;;;;;;;304.87;136.77;;;;;;;;;;5040100;28;20424;-57
2023/09/29 11:28:53;;;;;;;237.63;60.53;;;;;;;;;;5039693;28;20261;-56
2023/09/29 11:31:20;;;;;;;266.00;93.20;;;;;;;;;;5040777;28;20062;-58
2023/09/29 11:33:46;;;;;;;492.50;88.45;;;;;;;;;;5020725;28;20150;-57
2023/09/29 11:36:12;;;;;;;305.10;129.52;;;;;;;;;;5040386;28;20040;-56
2023/09/29 11:38:37;;;;;;;300.07;49.20;;;;;;;;;;5039874;28;20038;-56
2023/09/29 11:41:04;;;;;;;226.80;48.92;;;;;;;;;;5040265;28;20550;-57
2023/09/29 11:43:30;;;;;;;292.88;70.03;;;;;;;;;;5039852;28;20017;-56
2023/09/29 11:45:55;;;;;;;311.52;122.43;;;;;;;;;;5038006;28;20028;-59
2023/09/29 11:48:21;;;;;;;303.58;87.68;;;;;;;;;;5039014;28;20099;-57
2023/09/29 11:50:46;;;;;;;524.63;295.50;;;;;;;;;;5038030;28;20044;-58
2023/09/29 11:53:11;;;;;;;348.20;187.63;;;;;;;;;;5040187;28;20475;-56
2023/09/29 11:55:37;;;;;;;513.10;238.10;;;;;;;;;;5038068;28;20313;-58
2023/09/29 11:58:03;;;;;;;322.98;122.20;;;;;;;;;;5039776;28;20856;-56
2023/09/29 12:00:28;;;;;;;248.15;50.95;;;;;;;;;;5040499;28;20070;-56
2023/09/29 12:02:54;;;;;;;309.75;97.15;;;;;;;;;;5038682;28;20033;-56
2023/09/29 12:05:19;;;;;;;190.27;72.18;;;;;;;;;;5039856;28;20013;-57
2023/09/29 12:07:44;;;;;;;356.02;45.88;;;;;;;;;;5038822;28;20049;-57
2023/09/29 12:10:10;;;;;;;306.77;70.13;;;;;;;;;;5038419;28;20501;-57
2023/09/29 12:12:35;;;;;;;283.83;129.77;;;;;;;;;;5038931;28;20024;-56
2023/09/29 12:15:00;;;;;;;194.18;42.30;;;;;;;;;;5039167;28;20052;-57
2023/09/29 12:17:25;;;;;;;224.07;46.30;;;;;;;;;;5040284;28;20506;-59
2023/09/29 12:19:51;;;;;;;534.60;311.92;;;;;;;;;;5039611;28;20268;-59
2023/09/29 12:22:17;;;;;;;453.02;322.02;;;;;;;;;;5039456;28;20044;-58
2023/09/29 12:24:42;;;;;;;399.00;51.55;;;;;;;;;;5037619;28;20505;-57
2023/09/29 12:27:10;;;;;;;235.33;62.37;;;;;;;;;;5039119;28;20021;-58
2023/09/29 12:29:36;;;;;;;214.38;56.80;;;;;;;;;;5038496;28;20796;-58
2023/09/29 12:32:02;;;;;;;318.73;133.38;;;;;;;;;;5038641;28;20032;-59
2023/09/29 12:34:32;;;;;;;208.90;112.47;;;;;;;;;;5039985;28;20056;-57
2023/09/29 12:36:57;;;;;;;334.27;173.65;;;;;;;;;;5037460;28;20033;-56
2023/09/29 12:39:22;;;;;;;287.00;129.52;;;;;;;;;;5040545;28;20563;-56
2023/09/29 12:41:47;;;;;;;574.37;349.20;;;;;;;;;;5038457;28;20088;-55
2023/09/29 12:44:13;;;;;;;247.93;75.83;;;;;;;;;;5040239;28;20108;-55
2023/09/29 12:46:38;;;;;;;477.35;317.30;;;;;;;;;;5037705;28;20029;-56
2023/09/29 12:49:04;;;;;;;467.48;291.23;;;;;;;;;;5039696;28;20386;-54
2023/09/29 12:51:29;;;;;;;374.10;247.32;;;;;;;;;;5035662;28;20029;-55
2023/09/29 12:53:56;;;;;;;762.25;303.15;;;;;;;;;;5028660;28;20496;-57
2023/09/29 12:56:21;;;;;;;457.80;214.07;;;;;;;;;;5035078;28;20040;-56
2023/09/29 12:58:46;;;;;;;397.00;53.72;;;;;;;;;;5034840;28;20041;-57
2023/09/29 13:01:12;;;;;;;578.72;382.42;;;;;;;;;;5035643;28;20040;-56
2023/09/29 13:03:37;;;;;;;406.10;102.50;;;;;;;;;;5033864;28;20029;-57
2023/09/29 13:06:06;;;;;;;361.50;52.75;;;;;;;;;;5034888;28;20268;-57
2023/09/29 13:08:33;;;;;;;292.73;49.70;;;;;;;;;;5034194;28;20410;-58
2023/09/29 13:10:58;;;;;;;294.63;108.68;;;;;;;;;;5033188;28;20042;-58
2023/09/29 13:13:23;;;;;;;219.27;50.83;;;;;;;;;;5034501;28;20102;-59
2023/09/29 13:15:52;;;;;;;497.20;323.43;;;;;;;;;;5034485;28;20033;-58
2023/09/29 13:18:18;;;;;;;261.13;53.38;;;;;;;;;;5039881;28;20268;-57
2023/09/29 13:20:44;;;;;;;383.98;62.33;;;;;;;;;;5019604;28;20037;-57
2023/09/29 13:23:10;;;;;;;525.67;313.38;;;;;;;;;;5039514;28;20286;-57
2023/09/29 13:25:36;;;;;;;468.95;231.55;;;;;;;;;;5039423;28;20033;-58
2023/09/29 13:28:02;;;;;;;427.45;198.10;;;;;;;;;;5038489;28;20017;-57
2023/09/29 13:30:27;;;;;;;377.08;69.50;;;;;;;;;;5039171;28;20401;-56
2023/09/29 13:32:53;;;;;;;644.97;107.20;;;;;;;;;;5036044;28;20048;-57
2023/09/29 13:35:19;;;;;;;370.13;93.78;;;;;;;;;;5037874;28;20021;-56
2023/09/29 13:37:44;;;;;;;542.05;65.78;;;;;;;;;;5037992;28;20091;-57
2023/09/29 13:40:10;;;;;;;471.43;276.17;;;;;;;;;;5039607;28;20139;-57
2023/09/29 13:42:36;;;;;;;592.80;495.20;;;;;;;;;;5040004;28;20283;-57
2023/09/29 13:45:02;;;;;;;333.00;110.70;;;;;;;;;;5037158;28;20493;-57
2023/09/29 13:47:28;;;;;;;462.48;320.15;;;;;;;;;;5039558;28;20036;-54